Lee's Summit, Missouri
Current Conditions -  °F | °C
As of 7:53 AM on Wednesday 28 Jan 2015 (Local Time) from KLXT Reporting Station
Clear Clear  
Wind Chill: 36°   Ceiling: Unl
Heat Index: 42°   Visibility: 10mi
Dew Point: 31°   Wind: 10mph
Humidity: 65%   Direction: 170°S
Pressure: 29.96"   Gusts: NA
Location:  38.91°N, 94.38°W
Report Text: KLXT 281353Z AUTO 17009KT 10SM CLR 06/M01 A2996 RMK AO2 SLP150 T00561006
Loading
Personal Weather Stations






























Interactive Weather Map New forecast layout! Learn more

10-Day Weather Forecast

Advertisements
Track Severe Weather on mobile